CST,Max TemperatureF,Mean TemperatureF,Min TemperatureF,Max Dew PointF,MeanDew PointF,Min DewpointF,Max Humidity, Mean Humidity, Min Humidity, Max Sea Level PressureIn, Mean Sea Level PressureIn, Min Sea Level PressureIn, Max VisibilityMiles, Mean VisibilityMiles, Min VisibilityMiles, Max Wind SpeedMPH, Mean Wind SpeedMPH, Max Gust SpeedMPH,PrecipitationIn, CloudCover, Events, WindDirDegrees
2013-5-1,91,82,73,75,71,68,79,61,44,29.89,29.85,29.79,12,8,6,17,6,,0.00,6,,286
2013-5-2,93,82,72,75,72,70,94,64,40,29.91,29.85,29.79,12,8,6,17,6,,0.08,5,Rain,264
2013-5-3,91,81,71,75,72,70,94,77,40,29.93,29.85,29.77,12,7,0,21,5,,0.00,6,Rain-Thunderstorm,111
2013-5-4,96,84,72,72,66,61,94,52,25,29.89,29.81,29.74,12,10,6,17,7,,0.00,3,,83
2013-5-5,96,82,69,70,63,57,83,45,20,29.92,29.87,29.81,12,8,6,18,9,,0.00,7,,79
2013-5-6,94,84,73,73,68,62,79,55,26,29.99,29.91,29.83,12,8,6,17,4,,0.00,4,,281
2013-5-7,95,82,70,64,61,55,69,40,23,29.97,29.90,29.83,12,9,6,17,11,29,0.00,3,,58
2013-5-8,97,82,68,64,57,50,78,36,14,29.98,29.90,29.83,12,10,6,17,7,,0.00,7,,87
2013-5-9,95,83,71,67,64,59,78,47,24,29.96,29.91,29.84,12,8,6,14,5,,0.00,2,,289
2013-5-10,95,84,74,73,68,66,83,57,36,29.94,29.87,29.74,12,8,6,12,6,,0.00,5,Rain-Thunderstorm,173
2013-5-11,95,84,73,73,70,66,91,58,34,29.90,29.82,29.77,12,8,6,20,8,,0.00,5,Rain,92
2013-5-12,93,86,78,72,69,66,78,55,38,29.88,29.82,29.77,12,8,6,17,10,,0.00,5,,76
2013-5-13,92,82,73,64,62,59,58,41,27,29.87,29.82,29.76,12,12,12,26,17,38,0.00,8,,65
2013-5-14,96,86,75,64,62,59,58,41,24,29.87,29.83,29.78,12,9,6,31,17,34,0.00,7,,61
2013-5-15,94,84,75,66,63,59,69,41,28,29.88,29.83,29.78,12,8,6,30,14,41,0.00,4,,66
2013-5-16,95,84,74,66,63,59,69,44,26,29.90,29.83,29.56,12,8,6,21,13,,0.00,4,,70
2013-5-17,96,83,70,66,64,63,73,44,26,29.90,29.85,29.81,12,8,6,17,9,29,0.00,4,,80
2013-5-18,95,83,71,68,65,62,83,48,28,29.92,29.85,29.78,12,8,6,22,7,,0.00,6,,72
2013-5-19,97,84,72,68,66,62,78,46,26,29.90,29.82,29.76,12,8,6,21,8,,0.00,6,,70
2013-5-20,98,86,73,72,68,61,83,53,24,29.89,29.82,29.74,12,8,6,13,6,,0.00,5,,217
2013-5-21,92,83,74,73,71,67,94,75,35,29.86,29.80,29.76,12,7,0,23,6,,0.00,6,Rain-Thunderstorm,161
2013-5-22,89,81,73,75,73,70,100,86,50,29.90,29.83,29.78,12,6,1,13,5,,2.13,7,Fog-Rain-Thunderstorm,149
2013-5-23,91,82,73,75,73,71,95,76,44,29.90,29.83,29.77,12,7,2,12,2,,0.16,6,Fog-Rain,189
2013-5-24,89,80,71,74,73,70,100,82,54,29.92,29.85,29.81,12,7,0,26,4,,1.93,7,Rain-Thunderstorm,176
2013-5-25,89,81,73,75,72,68,94,70,45,29.94,29.87,29.82,12,8,6,9,4,,0.00,7,,122
2013-5-26,91,82,73,75,71,66,94,68,37,29.91,29.86,29.80,12,7,6,13,5,,0.00,5,Rain,187
2013-5-27,91,82,73,75,72,69,94,71,45,29.91,29.85,29.77,12,8,6,12,4,,0.01,5,Rain-Thunderstorm,241
2013-5-28,93,82,72,74,71,66,94,69,34,29.86,29.82,29.76,12,8,6,18,6,,0.31,6,Rain-Thunderstorm,126
2013-5-29,89,80,72,75,72,68,100,79,43,29.88,29.84,29.79,12,6,2,13,5,,1.18,6,Rain-Thunderstorm,107
2013-5-30,82,78,73,74,73,72,94,82,66,29.89,29.85,29.80,12,8,6,10,4,,0.00,7,Rain,220
2013-5-31,88,80,71,75,72,70,100,84,58,29.91,29.85,29.80,12,7,1,12,4,,0.00,6,Fog-Rain,204